Time;durP1;ratioP1;P1;durP2;ratioP2;P2;SDS_P1;SDS_P2;PMS_P1;PMS_P2;Temp;Humidity;BMP_temperature;BMP_pressure;BME280_temperature;BME280_humidity;BME280_pressure;Samples;Min_cycle;Max_cycle;Signal;HPM_P1;HPM_P2
2022/04/09 00:00:16;;;;;;;1.55;0.52;;;16.70;66.80;;;;;;5020488;28;20481;-73
2022/04/09 00:02:42;;;;;;;1.17;0.50;;;16.70;66.80;;;;;;5027911;28;20014;-73
2022/04/09 00:05:11;;;;;;;0.60;0.47;;;16.70;66.80;;;;;;5030428;28;20021;-73
2022/04/09 00:07:37;;;;;;;3.75;0.60;;;16.70;66.80;;;;;;5018477;28;20022;-73
2022/04/09 00:10:05;;;;;;;0.82;0.52;;;16.70;66.80;;;;;;5019571;28;20420;-73
2022/04/09 00:12:31;;;;;;;1.23;0.70;;;16.70;66.80;;;;;;5026665;28;20033;-73
2022/04/09 00:14:56;;;;;;;1.70;0.70;;;16.80;66.80;;;;;;5030438;28;20026;-73
2022/04/09 00:17:22;;;;;;;1.40;0.60;;;16.80;66.80;;;;;;5029226;28;20018;-73
2022/04/09 00:19:48;;;;;;;1.98;0.80;;;16.80;66.80;;;;;;5031740;28;20028;-73
2022/04/09 00:22:14;;;;;;;1.17;0.52;;;16.80;66.80;;;;;;5031217;28;20022;-73
2022/04/09 00:24:40;;;;;;;1.55;0.60;;;16.80;66.90;;;;;;5033249;28;20037;-73
2022/04/09 00:27:06;;;;;;;0.75;0.50;;;16.80;66.80;;;;;;5031156;28;20022;-73
2022/04/09 00:29:31;;;;;;;1.13;0.70;;;16.80;66.80;;;;;;5029817;28;20438;-73
2022/04/09 00:31:57;;;;;;;1.23;0.73;;;16.80;66.90;;;;;;5031730;28;20395;-73
2022/04/09 00:34:22;;;;;;;1.17;0.60;;;16.90;66.80;;;;;;5031389;28;20508;-73
2022/04/09 00:36:48;;;;;;;1.67;0.47;;;16.80;66.80;;;;;;5032479;28;20017;-73
2022/04/09 00:39:14;;;;;;;1.40;0.80;;;16.80;66.80;;;;;;5032813;28;20395;-73
2022/04/09 00:41:40;;;;;;;1.02;0.70;;;16.80;66.90;;;;;;5032435;28;20076;-73
2022/04/09 00:44:21;;;;;;;2.47;0.73;;;16.80;66.80;;;;;;5031302;28;20403;-73
2022/04/09 00:46:47;;;;;;;1.30;0.55;;;16.90;66.80;;;;;;5031356;28;20120;-73
2022/04/09 00:49:13;;;;;;;1.25;0.70;;;16.80;66.90;;;;;;5015014;28;20112;-73
2022/04/09 00:51:42;;;;;;;1.15;0.60;;;16.80;66.80;;;;;;5031614;28;20483;-73
2022/04/09 00:54:10;;;;;;;1.60;1.00;;;16.90;66.90;;;;;;5015042;28;20022;-73
2022/04/09 00:56:37;;;;;;;1.98;0.70;;;16.90;66.90;;;;;;5031341;28;20021;-73
2022/04/09 00:59:06;;;;;;;1.42;0.70;;;16.90;66.90;;;;;;5031441;28;20017;-73
2022/04/09 01:01:34;;;;;;;1.50;0.68;;;16.90;66.90;;;;;;5032343;28;20595;-73
2022/04/09 01:03:59;;;;;;;1.73;0.70;;;16.90;66.90;;;;;;5032653;28;20049;-73
2022/04/09 01:06:25;;;;;;;2.22;0.68;;;16.90;66.90;;;;;;5031214;28;20057;-73
2022/04/09 01:08:51;;;;;;;2.85;0.90;;;16.90;67.00;;;;;;5032352;28;20112;-73
2022/04/09 01:11:16;;;;;;;1.00;0.70;;;16.90;66.90;;;;;;5030956;28;20249;-73
2022/04/09 01:13:43;;;;;;;1.70;0.70;;;16.90;66.90;;;;;;5032423;28;20032;-73
2022/04/09 01:16:09;;;;;;;1.42;0.70;;;16.90;66.90;;;;;;5031164;28;20017;-73
2022/04/09 01:18:35;;;;;;;2.22;0.70;;;16.90;67.00;;;;;;5032190;28;20407;-73
2022/04/09 01:21:01;;;;;;;1.80;0.73;;;16.90;66.90;;;;;;5030829;28;20026;-73
2022/04/09 01:23:27;;;;;;;1.67;0.95;;;16.90;66.90;;;;;;5030956;28;20053;-73
2022/04/09 01:25:53;;;;;;;1.42;0.70;;;17.00;67.00;;;;;;5030811;28;20502;-73
2022/04/09 01:28:19;;;;;;;1.08;0.77;;;16.90;67.00;;;;;;5032105;28;20029;-73
2022/04/09 01:30:45;;;;;;;1.73;0.80;;;17.00;66.90;;;;;;5031093;28;20484;-73
2022/04/09 01:33:20;;;;;;;2.38;0.68;;;17.00;67.00;;;;;;5032243;28;20027;-73
2022/04/09 01:35:46;;;;;;;1.80;0.80;;;17.00;67.00;;;;;;5030922;28;20025;-73
2022/04/09 01:38:12;;;;;;;1.80;0.82;;;17.00;67.00;;;;;;5030745;28;20026;-73
2022/04/09 01:40:38;;;;;;;1.65;0.80;;;17.00;67.00;;;;;;5030963;28;20102;-73
2022/04/09 01:43:04;;;;;;;1.73;0.80;;;17.00;67.00;;;;;;5031004;28;20528;-73
2022/04/09 01:45:30;;;;;;;0.80;0.70;;;17.00;67.00;;;;;;5031845;28;20393;-73
2022/04/09 01:47:56;;;;;;;2.60;1.13;;;17.00;67.00;;;;;;5031062;28;20491;-73
2022/04/09 01:50:21;;;;;;;1.33;0.80;;;17.00;67.00;;;;;;5033176;28;20384;-73
2022/04/09 01:52:47;;;;;;;1.15;0.70;;;17.00;67.00;;;;;;5034849;28;20049;-73
2022/04/09 01:55:13;;;;;;;1.08;0.70;;;17.00;67.00;;;;;;5035706;28;20533;-73
2022/04/09 01:57:39;;;;;;;1.92;0.73;;;17.00;67.00;;;;;;5034386;28;20025;-73
2022/04/09 02:00:07;;;;;;;1.35;1.00;;;17.00;67.00;;;;;;5034808;28;20068;-73
2022/04/09 02:02:32;;;;;;;2.83;0.90;;;17.00;67.10;;;;;;5035675;28;20025;-73
2022/04/09 02:04:58;;;;;;;0.75;0.65;;;17.00;67.00;;;;;;5035810;28;20075;-73
2022/04/09 02:07:24;;;;;;;1.88;0.80;;;17.00;67.10;;;;;;5034467;28;20095;-73
2022/04/09 02:09:50;;;;;;;1.58;0.80;;;17.00;67.00;;;;;;5035539;28;20407;-73
2022/04/09 02:12:15;;;;;;;1.15;0.77;;;17.10;67.10;;;;;;5034299;28;20036;-73
2022/04/09 02:14:41;;;;;;;1.38;0.85;;;17.10;67.10;;;;;;5034441;28;20029;-73
2022/04/09 02:17:07;;;;;;;0.98;0.70;;;17.10;67.10;;;;;;5034293;28;20091;-73
2022/04/09 02:19:33;;;;;;;2.22;0.75;;;17.10;67.20;;;;;;5021919;28;20014;-73
2022/04/09 02:21:58;;;;;;;1.65;0.80;;;17.10;67.20;;;;;;5007751;28;20048;-73
2022/04/09 02:24:24;;;;;;;1.40;0.77;;;17.10;67.20;;;;;;5035126;28;20027;-73
2022/04/09 02:26:50;;;;;;;5.20;0.93;;;17.10;67.20;;;;;;5034084;28;20503;-73
2022/04/09 02:29:15;;;;;;;0.80;0.70;;;17.10;67.20;;;;;;5035383;28;20472;-73
2022/04/09 02:31:41;;;;;;;1.40;0.75;;;17.10;67.20;;;;;;5035196;28;20021;-73
2022/04/09 02:34:07;;;;;;;1.35;0.95;;;17.10;67.20;;;;;;5033868;28;20654;-73
2022/04/09 02:36:32;;;;;;;1.20;0.73;;;17.10;67.20;;;;;;5035058;28;20032;-73
2022/04/09 02:38:58;;;;;;;2.20;1.10;;;17.10;67.20;;;;;;5033802;28;20368;-73
2022/04/09 02:41:24;;;;;;;3.05;0.80;;;17.10;67.20;;;;;;5035093;28;20413;-73
2022/04/09 02:43:50;;;;;;;0.75;0.70;;;17.10;67.20;;;;;;5033851;28;20097;-73
2022/04/09 02:46:16;;;;;;;1.95;1.05;;;17.10;67.20;;;;;;5034568;28;20049;-73
2022/04/09 02:48:42;;;;;;;2.25;1.30;;;17.10;67.20;;;;;;5033915;28;20022;-73
2022/04/09 02:51:08;;;;;;;1.02;0.90;;;17.10;67.30;;;;;;5034971;28;20476;-73
2022/04/09 02:53:33;;;;;;;1.75;0.80;;;17.10;67.20;;;;;;5034499;28;20017;-73
2022/04/09 02:55:59;;;;;;;2.13;0.90;;;17.10;67.20;;;;;;5033409;28;20431;-73
2022/04/09 02:58:25;;;;;;;1.20;1.08;;;17.10;67.20;;;;;;5034661;28;20025;-73
2022/04/09 03:00:50;;;;;;;1.80;0.90;;;17.10;67.30;;;;;;5033357;28;20056;-73
2022/04/09 03:03:16;;;;;;;2.38;0.77;;;17.10;67.30;;;;;;5034715;28;20488;-73
2022/04/09 03:05:42;;;;;;;1.15;0.60;;;17.10;67.30;;;;;;5034524;28;20026;-73
2022/04/09 03:08:07;;;;;;;1.75;0.80;;;17.10;67.30;;;;;;5034412;28;20025;-73
2022/04/09 03:10:33;;;;;;;1.45;0.80;;;17.10;67.30;;;;;;5034527;28;20040;-73
2022/04/09 03:12:58;;;;;;;0.85;0.80;;;17.10;67.30;;;;;;5034468;28;20026;-73
2022/04/09 03:15:26;;;;;;;1.52;0.82;;;17.10;67.30;;;;;;5034388;28;20026;-73
2022/04/09 03:17:52;;;;;;;1.25;0.75;;;17.10;67.40;;;;;;5034430;28;20024;-73
2022/04/09 03:20:17;;;;;;;4.28;0.90;;;17.10;67.30;;;;;;5015000;28;20105;-73
2022/04/09 03:22:49;;;;;;;2.38;1.00;;;17.10;67.30;;;;;;5014165;28;20022;-73
2022/04/09 03:25:15;;;;;;;1.38;0.70;;;17.20;67.30;;;;;;5014515;28;20029;-73
2022/04/09 03:27:40;;;;;;;1.50;1.00;;;17.10;67.30;;;;;;5013217;28;20037;-73
2022/04/09 03:30:08;;;;;;;2.63;1.00;;;17.10;67.30;;;;;;5014597;28;20033;-73
2022/04/09 03:32:38;;;;;;;1.20;0.80;;;17.20;67.40;;;;;;5014112;28;20026;-73
2022/04/09 03:35:07;;;;;;;1.00;0.90;;;17.20;67.40;;;;;;5013296;28;20033;-73
2022/04/09 03:37:36;;;;;;;1.35;0.90;;;17.20;67.40;;;;;;5012568;28;20029;-73
2022/04/09 03:40:04;;;;;;;2.05;0.82;;;17.20;67.40;;;;;;5013161;28;20022;-73
2022/04/09 03:42:30;;;;;;;1.02;0.70;;;17.20;67.40;;;;;;5012961;28;20022;-73
2022/04/09 03:44:55;;;;;;;2.00;1.08;;;17.10;67.40;;;;;;5012854;28;20049;-73
2022/04/09 03:47:21;;;;;;;1.33;0.80;;;17.10;67.40;;;;;;5012993;28;20395;-73
2022/04/09 03:49:47;;;;;;;1.50;0.88;;;17.10;67.30;;;;;;5013941;28;20125;-73
2022/04/09 03:52:13;;;;;;;1.17;0.88;;;17.20;67.40;;;;;;5013816;28;20528;-73
2022/04/09 03:54:39;;;;;;;0.80;0.80;;;17.10;67.30;;;;;;5012611;28;20400;-73
2022/04/09 03:57:05;;;;;;;0.65;0.60;;;17.20;67.40;;;;;;5021926;28;20017;-73
2022/04/09 03:59:31;;;;;;;1.45;1.00;;;17.20;67.40;;;;;;5032220;28;20075;-73
2022/04/09 04:01:56;;;;;;;1.38;0.70;;;17.10;67.30;;;;;;5032432;28;20071;-73
2022/04/09 04:04:22;;;;;;;0.93;0.70;;;17.20;67.40;;;;;;5032377;28;20029;-73
2022/04/09 04:06:48;;;;;;;2.45;0.75;;;17.20;67.40;;;;;;5033155;28;20064;-73
2022/04/09 04:09:16;;;;;;;0.95;0.80;;;17.20;67.40;;;;;;5033578;28;20026;-73
2022/04/09 04:11:43;;;;;;;0.88;0.82;;;17.20;67.40;;;;;;5032823;28;20492;-73
2022/04/09 04:14:09;;;;;;;1.42;0.95;;;17.20;67.40;;;;;;5032997;28;20036;-73
2022/04/09 04:16:35;;;;;;;1.70;0.88;;;17.20;67.40;;;;;;5033239;28;20060;-73
2022/04/09 04:19:00;;;;;;;1.95;1.00;;;17.20;67.50;;;;;;5022955;28;20057;-73
2022/04/09 04:21:27;;;;;;;2.55;1.10;;;17.20;67.40;;;;;;5013173;28;20028;-73
2022/04/09 04:23:52;;;;;;;1.40;0.80;;;17.20;67.40;;;;;;5013476;28;20496;-73
2022/04/09 04:26:18;;;;;;;1.38;0.70;;;17.10;67.40;;;;;;5012357;28;20029;-73
2022/04/09 04:28:48;;;;;;;1.13;0.80;;;17.20;67.50;;;;;;5013150;28;20489;-73
2022/04/09 04:31:17;;;;;;;1.40;0.70;;;17.20;67.40;;;;;;5013408;28;20029;-73
2022/04/09 04:33:42;;;;;;;1.48;1.00;;;17.20;67.40;;;;;;5012840;28;20034;-72
2022/04/09 04:36:08;;;;;;;0.70;0.70;;;17.10;67.40;;;;;;5013064;28;20028;-73
2022/04/09 04:38:34;;;;;;;1.08;0.70;;;17.20;67.50;;;;;;5013233;28;20354;-73
2022/04/09 04:41:01;;;;;;;3.28;0.95;;;17.20;67.40;;;;;;5012349;28;20025;-73
2022/04/09 04:43:26;;;;;;;3.30;0.80;;;17.10;67.40;;;;;;5012435;28;20088;-73
2022/04/09 04:45:52;;;;;;;3.75;1.00;;;17.20;67.50;;;;;;5013268;28;20508;-73
2022/04/09 04:48:20;;;;;;;1.25;0.80;;;17.10;67.40;;;;;;5012652;28;20037;-73
2022/04/09 04:50:46;;;;;;;1.13;1.00;;;17.20;67.50;;;;;;5012714;28;20032;-73
2022/04/09 04:53:12;;;;;;;1.27;0.98;;;17.20;67.50;;;;;;5010991;28;20034;-73
2022/04/09 04:55:37;;;;;;;1.17;0.80;;;17.20;67.50;;;;;;5011890;28;20026;-73
2022/04/09 04:58:03;;;;;;;4.68;0.77;;;17.20;67.50;;;;;;5027975;28;20034;-73
2022/04/09 05:00:29;;;;;;;1.23;0.50;;;17.20;67.50;;;;;;5031720;28;20029;-72
2022/04/09 05:02:55;;;;;;;1.30;0.77;;;17.20;67.50;;;;;;5030779;28;20022;-72
2022/04/09 05:05:21;;;;;;;0.63;0.52;;;17.20;67.50;;;;;;5030380;28;20022;-72
2022/04/09 05:07:48;;;;;;;0.85;0.77;;;17.20;67.50;;;;;;5031507;28;20022;-73
2022/04/09 05:10:15;;;;;;;0.80;0.65;;;17.20;68.60;;;;;;5031738;28;20018;-73
2022/04/09 05:12:41;;;;;;;2.58;0.90;;;17.20;67.50;;;;;;5031720;28;20495;-72
2022/04/09 05:15:07;;;;;;;3.97;0.88;;;17.20;67.50;;;;;;5030425;28;20022;-73
2022/04/09 05:17:33;;;;;;;1.17;0.60;;;17.20;67.60;;;;;;5031695;28;20060;-73
2022/04/09 05:19:59;;;;;;;1.30;0.60;;;17.20;67.60;;;;;;5013050;28;20480;-73
2022/04/09 05:22:28;;;;;;;0.70;0.65;;;17.20;67.60;;;;;;5011689;28;20030;-73
2022/04/09 05:24:54;;;;;;;1.10;0.60;;;17.10;67.50;;;;;;5009310;28;20026;-73
2022/04/09 05:27:20;;;;;;;2.25;0.60;;;17.20;67.60;;;;;;5010701;28;20067;-73
2022/04/09 05:29:46;;;;;;;1.38;0.68;;;17.20;67.60;;;;;;5011519;28;20109;-73
2022/04/09 05:32:11;;;;;;;1.65;0.80;;;17.20;67.60;;;;;;5011664;28;20476;-73
2022/04/09 05:34:37;;;;;;;0.88;0.70;;;17.20;67.70;;;;;;5010094;28;20618;-72
2022/04/09 05:37:03;;;;;;;1.10;0.80;;;17.20;67.60;;;;;;5011542;28;20105;-72
2022/04/09 05:39:28;;;;;;;1.88;0.90;;;17.20;67.60;;;;;;5011815;28;20100;-73
2022/04/09 05:41:54;;;;;;;1.17;0.60;;;17.20;67.70;;;;;;5011515;28;20353;-73
2022/04/09 05:44:20;;;;;;;0.98;0.80;;;17.10;67.50;;;;;;5010370;28;20018;-73
2022/04/09 05:46:45;;;;;;;1.95;0.80;;;17.20;67.60;;;;;;4971107;28;1177700;-73
2022/04/09 05:49:11;;;;;;;1.13;0.68;;;17.20;67.70;;;;;;5012215;28;20037;-73
2022/04/09 05:51:37;;;;;;;0.73;0.70;;;17.20;67.70;;;;;;5012360;28;20045;-73
2022/04/09 05:54:03;;;;;;;2.72;0.57;;;17.20;67.70;;;;;;5012377;28;20030;-73
2022/04/09 05:56:29;;;;;;;0.57;0.57;;;17.20;67.70;;;;;;5016245;28;20022;-73
2022/04/09 05:58:54;;;;;;;0.68;0.50;;;17.10;67.70;;;;;;5031909;28;20034;-73
2022/04/09 06:01:20;;;;;;;1.33;0.80;;;17.10;67.60;;;;;;5031954;28;20028;-73
2022/04/09 06:03:46;;;;;;;2.13;0.80;;;17.10;67.60;;;;;;5030573;28;20075;-73
2022/04/09 06:06:11;;;;;;;0.82;0.70;;;17.20;67.70;;;;;;5031976;28;20101;-73
2022/04/09 06:08:37;;;;;;;3.45;0.60;;;17.20;67.70;;;;;;5031916;28;20029;-73
2022/04/09 06:11:03;;;;;;;1.35;0.55;;;17.10;67.60;;;;;;5030565;28;20018;-73
2022/04/09 06:13:29;;;;;;;0.82;0.60;;;17.10;67.60;;;;;;5030648;28;20029;-73
2022/04/09 06:15:54;;;;;;;0.80;0.70;;;17.10;67.70;;;;;;5031592;28;20415;-73
2022/04/09 06:18:20;;;;;;;0.63;0.57;;;17.20;67.70;;;;;;5027295;28;20049;-73
2022/04/09 06:20:46;;;;;;;2.22;0.70;;;17.20;67.70;;;;;;5010410;28;20025;-73
2022/04/09 06:23:12;;;;;;;1.15;0.68;;;17.20;67.70;;;;;;5010861;28;20105;-73
2022/04/09 06:25:37;;;;;;;0.80;0.60;;;17.20;67.70;;;;;;5010824;28;20026;-73
2022/04/09 06:28:03;;;;;;;0.60;0.60;;;17.20;67.70;;;;;;5010929;28;20037;-73
2022/04/09 06:30:29;;;;;;;1.13;0.82;;;17.20;67.70;;;;;;5010631;28;20018;-73
2022/04/09 06:32:55;;;;;;;1.20;0.77;;;17.20;67.70;;;;;;5010436;28;20041;-73
2022/04/09 06:35:21;;;;;;;1.38;0.60;;;17.20;67.70;;;;;;5012674;28;20052;-73
2022/04/09 06:37:47;;;;;;;0.82;0.52;;;17.20;67.80;;;;;;5014235;28;20097;-73
2022/04/09 06:40:13;;;;;;;1.02;0.60;;;17.20;67.70;;;;;;5017000;28;20532;-74
2022/04/09 06:42:42;;;;;;;1.33;0.50;;;17.10;67.70;;;;;;5062984;28;20029;-74
2022/04/09 06:45:09;;;;;;;1.27;0.95;;;17.20;67.70;;;;;;5055837;28;20060;-74
2022/04/09 06:47:38;;;;;;;1.30;0.70;;;17.10;67.70;;;;;;5032531;28;20049;-73
2022/04/09 06:50:08;;;;;;;0.73;0.60;;;17.20;67.70;;;;;;5039111;28;20026;-73
2022/04/09 06:52:34;;;;;;;1.00;0.70;;;17.20;67.70;;;;;;5062679;28;20512;-73
2022/04/09 06:54:59;;;;;;;1.83;0.50;;;17.10;67.70;;;;;;5041833;28;20025;-73
2022/04/09 06:57:25;;;;;;;0.85;0.80;;;17.20;67.80;;;;;;5041946;28;20104;-73
2022/04/09 06:59:51;;;;;;;1.08;0.57;;;17.20;67.80;;;;;;5034606;28;20033;-75
2022/04/09 07:02:16;;;;;;;1.70;0.50;;;17.20;67.90;;;;;;5067097;28;20469;-75
2022/04/09 07:04:42;;;;;;;2.78;0.65;;;17.20;68.00;;;;;;5034652;28;20030;-74
2022/04/09 07:07:08;;;;;;;7.75;0.40;;;17.20;68.00;;;;;;5038271;28;20025;-74
2022/04/09 07:09:33;;;;;;;2.15;0.57;;;17.20;68.00;;;;;;5036025;28;20427;-74
2022/04/09 07:11:59;;;;;;;1.35;0.80;;;17.30;68.10;;;;;;5034778;28;20033;-75
2022/04/09 07:14:25;;;;;;;1.92;0.73;;;17.30;68.00;;;;;;5035439;28;20037;-74
2022/04/09 07:16:50;;;;;;;3.33;0.50;;;17.30;68.00;;;;;;5034795;28;20021;-73
2022/04/09 07:19:16;;;;;;;3.67;0.80;;;17.40;68.00;;;;;;5033314;28;20022;-68
2022/04/09 07:21:42;;;;;;;5.07;1.13;;;17.40;68.00;;;;;;5034280;28;20025;-73
2022/04/09 07:24:08;;;;;;;1.63;0.70;;;17.40;68.00;;;;;;5032875;28;20030;-72
2022/04/09 07:26:33;;;;;;;3.47;0.90;;;17.40;68.00;;;;;;5033676;28;20064;-69
2022/04/09 07:28:59;;;;;;;3.40;0.75;;;17.50;68.10;;;;;;5033982;28;20041;-68
2022/04/09 07:31:24;;;;;;;1.65;0.75;;;17.50;68.20;;;;;;5031618;28;20029;-69
2022/04/09 07:33:50;;;;;;;1.25;0.80;;;17.50;68.20;;;;;;5032962;28;20376;-71
2022/04/09 07:36:16;;;;;;;4.55;0.73;;;17.60;68.20;;;;;;5034709;28;20126;-67
2022/04/09 07:38:41;;;;;;;3.20;1.23;;;17.60;68.20;;;;;;5034124;28;20502;-68
2022/04/09 07:41:07;;;;;;;2.78;1.48;;;17.70;68.20;;;;;;5032436;28;20133;-69
2022/04/09 07:43:32;;;;;;;16.63;12.63;;;17.70;68.20;;;;;;5028439;28;20546;-68
2022/04/09 07:45:58;;;;;;;22.00;17.77;;;17.70;68.20;;;;;;5030774;28;20049;-69
2022/04/09 07:48:24;;;;;;;24.42;17.65;;;17.70;68.20;;;;;;5030336;28;20084;-68
2022/04/09 07:50:49;;;;;;;20.35;16.90;;;17.70;68.20;;;;;;5033768;28;20047;-70
2022/04/09 07:53:15;;;;;;;23.13;15.88;;;17.80;68.20;;;;;;5033891;28;20083;-68
2022/04/09 07:55:41;;;;;;;19.23;14.05;;;17.80;68.20;;;;;;5032730;28;20044;-71
2022/04/09 07:58:07;;;;;;;19.98;13.63;;;17.80;68.30;;;;;;5028260;28;20075;-72
2022/04/09 08:00:32;;;;;;;18.95;13.48;;;17.80;68.20;;;;;;5065678;28;20013;-71
2022/04/09 08:02:58;;;;;;;16.35;11.70;;;17.90;68.30;;;;;;5024209;28;20120;-69
2022/04/09 08:05:24;;;;;;;18.35;12.30;;;17.90;68.30;;;;;;5030863;28;20622;-72
2022/04/09 08:07:49;;;;;;;17.85;11.43;;;17.90;68.20;;;;;;5063836;28;20036;-73
2022/04/09 08:10:16;;;;;;;16.88;11.35;;;17.90;68.20;;;;;;5031635;28;20496;-73
2022/04/09 08:12:42;;;;;;;16.90;11.25;;;17.90;68.20;;;;;;5029665;28;20033;-70
2022/04/09 08:15:08;;;;;;;17.20;10.95;;;17.90;68.20;;;;;;5031131;28;20075;-70
2022/04/09 08:17:38;;;;;;;15.95;11.52;;;18.00;68.20;;;;;;5044882;28;20116;-78
2022/04/09 08:20:04;;;;;;;16.98;10.50;;;18.00;68.20;;;;;;5059379;28;20083;-76
2022/04/09 08:22:31;;;;;;;14.20;10.50;;;18.00;68.20;;;;;;5031454;28;20021;-72
2022/04/09 08:24:57;;;;;;;12.82;9.90;;;18.00;68.20;;;;;;5025407;28;20021;-72
2022/04/09 08:27:22;;;;;;;16.65;9.75;;;18.00;68.20;;;;;;5058550;28;20029;-74
2022/04/09 08:29:48;;;;;;;16.17;9.57;;;18.00;68.20;;;;;;5031808;28;20559;-75
2022/04/09 08:32:13;;;;;;;16.15;8.88;;;18.00;68.20;;;;;;5033066;28;20060;-73
2022/04/09 08:34:39;;;;;;;11.27;8.57;;;18.10;68.20;;;;;;5033219;28;20064;-73
2022/04/09 08:37:08;;;;;;;14.43;8.73;;;18.10;68.10;;;;;;5031366;28;20029;-73
2022/04/09 08:39:34;;;;;;;14.77;8.02;;;18.10;68.10;;;;;;5033110;28;20044;-73
2022/04/09 08:42:01;;;;;;;11.63;8.20;;;18.10;68.10;;;;;;5048833;28;20479;-80
2022/04/09 08:44:28;;;;;;;10.32;7.57;;;18.10;68.10;;;;;;5024727;28;20041;-73
2022/04/09 08:46:54;;;;;;;10.75;7.72;;;18.10;68.10;;;;;;5029547;28;20046;-74
2022/04/09 08:49:20;;;;;;;10.18;8.00;;;18.10;68.00;;;;;;5055489;28;20041;-75
2022/04/09 08:51:45;;;;;;;10.38;7.55;;;18.10;68.00;;;;;;5015269;28;20528;-78
2022/04/09 08:54:11;;;;;;;11.88;7.85;;;18.10;68.10;;;;;;5023364;28;20026;-77
2022/04/09 08:56:37;;;;;;;14.45;7.22;;;18.20;68.10;;;;;;5016887;28;20489;-78
2022/04/09 08:59:03;;;;;;;11.77;6.90;;;18.20;68.10;;;;;;5020853;28;20013;-78
2022/04/09 09:01:29;;;;;;;12.90;7.15;;;18.20;68.00;;;;;;5019502;28;20411;-76
2022/04/09 09:03:54;;;;;;;17.92;7.65;;;18.20;68.00;;;;;;5029864;28;20018;-76
2022/04/09 09:06:35;;;;;;;17.35;7.72;;;18.20;68.00;;;;;;5029871;28;20476;-74
2022/04/09 09:09:02;;;;;;;21.02;8.23;;;18.20;67.90;;;;;;5028003;28;20522;-73
2022/04/09 09:11:28;;;;;;;28.75;8.93;;;18.20;69.10;;;;;;5027014;28;20022;-72
2022/04/09 09:13:58;;;;;;;20.98;8.60;;;18.30;69.20;;;;;;5030112;28;20479;-72
2022/04/09 09:16:31;;;;;;;21.33;7.45;;;18.30;68.10;;;;;;5029702;28;20021;-72
2022/04/09 09:18:58;;;;;;;15.25;7.57;;;18.30;68.10;;;;;;5029835;28;20088;-72
2022/04/09 09:21:25;;;;;;;23.67;7.45;;;18.30;68.00;;;;;;5029571;28;20484;-73
2022/04/09 09:23:52;;;;;;;18.02;7.32;;;18.30;68.00;;;;;;5011239;28;20022;-76
2022/04/09 09:26:26;;;;;;;13.52;7.05;;;18.30;68.00;;;;;;5028399;28;20029;-73
2022/04/09 09:28:55;;;;;;;22.27;8.02;;;18.30;68.00;;;;;;5054006;28;20053;-76
2022/04/09 09:31:42;;;;;;;19.55;6.57;;;18.30;68.00;;;;;;5028664;28;20037;-74
2022/04/09 09:34:09;;;;;;;18.83;7.53;;;18.30;68.00;;;;;;5024814;28;20026;-76
2022/04/09 09:36:36;;;;;;;20.90;7.50;;;18.30;68.10;;;;;;5030602;28;20511;-75
2022/04/09 09:39:03;;;;;;;17.38;7.38;;;18.30;68.10;;;;;;5030752;28;20022;-76
2022/04/09 09:41:29;;;;;;;13.68;6.72;;;18.40;68.10;;;;;;5030723;28;20041;-76
2022/04/09 09:44:04;;;;;;;14.82;6.53;;;18.30;68.00;;;;;;5032109;28;20511;-76
2022/04/09 09:46:30;;;;;;;9.05;5.80;;;18.40;68.00;;;;;;5029767;28;20116;-76
2022/04/09 09:48:56;;;;;;;20.83;6.78;;;18.40;68.10;;;;;;5030296;28;20443;-76
2022/04/09 09:51:23;;;;;;;15.13;6.40;;;18.40;68.00;;;;;;5030835;28;20056;-76
2022/04/09 09:53:48;;;;;;;13.05;5.93;;;18.40;68.00;;;;;;5029378;28;20021;-76
2022/04/09 09:56:14;;;;;;;17.90;6.72;;;18.40;68.00;;;;;;5029005;28;20037;-76
2022/04/09 09:58:40;;;;;;;12.23;6.40;;;18.40;68.00;;;;;;5012922;28;20044;-76
2022/04/09 10:01:05;;;;;;;14.95;6.32;;;18.40;68.00;;;;;;5029328;28;20033;-76
2022/04/09 10:03:31;;;;;;;13.38;5.43;;;18.40;67.90;;;;;;5029117;28;20032;-76
2022/04/09 10:05:56;;;;;;;10.85;5.65;;;18.40;67.90;;;;;;5029704;28;20036;-73
2022/04/09 10:08:22;;;;;;;10.65;4.80;;;18.40;67.90;;;;;;5029808;28;20044;-74
2022/04/09 10:10:51;;;;;;;10.25;5.13;;;18.40;67.90;;;;;;5032937;28;20069;-74
2022/04/09 10:13:21;;;;;;;14.68;5.15;;;18.40;67.80;;;;;;5033783;28;20029;-74
2022/04/09 10:15:50;;;;;;;12.02;5.40;;;18.40;67.70;;;;;;5033607;28;20029;-74
2022/04/09 10:18:24;;;;;;;10.57;4.55;;;18.40;67.70;;;;;;5034238;28;20140;-74
2022/04/09 10:21:00;;;;;;;11.80;4.95;;;18.40;67.60;;;;;;5035544;28;20033;-74
2022/04/09 10:23:29;;;;;;;13.13;4.40;;;18.40;67.50;;;;;;5034002;28;20017;-74
2022/04/09 10:25:55;;;;;;;13.30;4.50;;;18.30;67.50;;;;;;5018263;28;20403;-74
2022/04/09 10:28:51;;;;;;;14.75;4.63;;;18.40;67.50;;;;;;5015598;28;20028;-74
2022/04/09 10:31:23;;;;;;;11.10;5.00;;;18.40;67.00;;;;;;5024906;28;20064;-74
2022/04/09 10:34:04;;;;;;;10.67;4.43;;;18.30;67.30;;;;;;5033311;28;20022;-74
2022/04/09 10:36:45;;;;;;;8.68;4.20;;;18.40;67.30;;;;;;5011951;28;20459;-74
2022/04/09 10:39:25;;;;;;;7.85;4.00;;;18.30;67.10;;;;;;5032394;28;20112;-74
2022/04/09 10:41:51;;;;;;;10.30;4.22;;;18.40;67.20;;;;;;5032342;28;20044;-74
2022/04/09 10:44:44;;;;;;;13.10;4.65;;;18.30;68.30;;;;;;5032994;28;20507;-74
2022/04/09 10:47:18;;;;;;;5.38;3.40;;;18.40;67.00;;;;;;5034936;28;20041;-74
2022/04/09 10:50:05;;;;;;;8.73;3.67;;;18.30;67.20;;;;;;5033883;28;20033;-74
2022/04/09 10:52:32;;;;;;;11.27;3.63;;;18.40;66.90;;;;;;5034436;28;20026;-74
2022/04/09 10:55:10;;;;;;;7.28;3.72;;;18.30;67.20;;;;;;5033696;28;20022;-74
2022/04/09 10:57:43;;;;;;;8.05;3.83;;;18.40;66.90;;;;;;5034857;28;20035;-74
2022/04/09 11:00:30;;;;;;;5.85;3.50;;;18.40;67.00;;;;;;5033619;28;20045;-74
2022/04/09 11:03:11;;;;;;;5.65;3.45;;;18.40;66.70;;;;;;5034900;28;20025;-74
2022/04/09 11:05:41;;;;;;;8.00;3.40;;;18.40;66.90;;;;;;5034754;28;20095;-74
2022/04/09 11:08:19;;;;;;;11.57;3.83;;;18.40;67.00;;;;;;5033458;28;20033;-74
2022/04/09 11:10:44;;;;;;;9.98;4.07;;;18.40;67.00;;;;;;5033361;28;20029;-74
2022/04/09 11:13:12;;;;;;;7.70;3.50;;;18.40;66.90;;;;;;5033375;28;20029;-74
2022/04/09 11:15:40;;;;;;;6.97;3.38;;;18.40;66.80;;;;;;5033326;28;20022;-74
2022/04/09 11:18:06;;;;;;;5.43;3.30;;;18.40;66.80;;;;;;5033379;28;20055;-74
2022/04/09 11:20:36;;;;;;;5.20;3.22;;;18.40;66.70;;;;;;5033186;28;20049;-74
2022/04/09 11:23:12;;;;;;;6.25;3.20;;;18.40;66.70;;;;;;5033380;28;20104;-74
2022/04/09 11:25:45;;;;;;;8.50;3.08;;;18.50;66.60;;;;;;5016730;28;20550;-74
2022/04/09 11:28:16;;;;;;;9.38;2.97;;;18.40;66.60;;;;;;5016890;28;20037;-74
2022/04/09 11:30:54;;;;;;;4.30;2.60;;;18.40;66.60;;;;;;5033291;28;20124;-74
2022/04/09 11:33:19;;;;;;;4.47;2.70;;;18.40;66.50;;;;;;5034191;28;20040;-74
2022/04/09 11:35:45;;;;;;;5.22;2.88;;;18.40;66.60;;;;;;5033539;28;20033;-74
2022/04/09 11:38:11;;;;;;;4.93;2.60;;;18.40;66.50;;;;;;5032911;28;20079;-74
2022/04/09 11:40:42;;;;;;;5.30;3.00;;;18.40;66.50;;;;;;5032979;28;20072;-74
2022/04/09 11:43:08;;;;;;;5.90;3.00;;;18.50;66.50;;;;;;5033976;28;20033;-74
2022/04/09 11:45:34;;;;;;;5.32;2.83;;;18.40;66.40;;;;;;5032586;28;20054;-74
2022/04/09 11:48:00;;;;;;;3.30;2.60;;;18.50;66.50;;;;;;5033982;28;20455;-74
2022/04/09 11:50:33;;;;;;;4.32;3.05;;;18.50;66.40;;;;;;5032301;28;20105;-74
2022/04/09 11:53:13;;;;;;;7.85;3.00;;;18.50;66.40;;;;;;5032798;28;20029;-74
2022/04/09 11:55:39;;;;;;;8.00;2.78;;;18.50;66.10;;;;;;5032434;28;20033;-74
2022/04/09 11:58:05;;;;;;;5.13;2.78;;;18.50;66.40;;;;;;5033790;28;20021;-74
2022/04/09 12:00:31;;;;;;;5.25;2.67;;;18.50;66.30;;;;;;5032647;28;20020;-74
2022/04/09 12:03:04;;;;;;;6.00;2.80;;;18.50;66.20;;;;;;5032272;28;20053;-74
2022/04/09 12:05:46;;;;;;;5.88;2.50;;;18.50;66.10;;;;;;5015513;28;20026;-74
2022/04/09 12:08:15;;;;;;;4.80;2.65;;;18.50;66.00;;;;;;5032516;28;20079;-74
2022/04/09 12:10:58;;;;;;;3.85;2.25;;;18.50;66.20;;;;;;5032344;28;20492;-74
2022/04/09 12:13:30;;;;;;;4.10;2.60;;;18.50;65.80;;;;;;5032179;28;20112;-74
2022/04/09 12:16:00;;;;;;;2.75;2.28;;;18.50;66.10;;;;;;5032187;28;20026;-74
2022/04/09 12:18:27;;;;;;;5.05;2.65;;;18.50;66.10;;;;;;5027686;28;20029;-74
2022/04/09 12:20:53;;;;;;;6.30;2.40;;;18.50;66.10;;;;;;5012696;28;20100;-74
2022/04/09 12:23:32;;;;;;;5.78;2.78;;;18.50;66.10;;;;;;5012228;28;20065;-74
2022/04/09 12:25:59;;;;;;;4.95;2.55;;;18.50;65.80;;;;;;5013748;28;20022;-74
2022/04/09 12:28:28;;;;;;;4.68;2.15;;;18.50;66.00;;;;;;5012195;28;20030;-74
2022/04/09 12:30:53;;;;;;;3.08;2.10;;;18.50;66.00;;;;;;5013599;28;20101;-74
2022/04/09 12:33:20;;;;;;;5.00;2.70;;;18.50;65.90;;;;;;5011453;28;20584;-74
2022/04/09 12:35:45;;;;;;;4.90;2.13;;;18.50;65.90;;;;;;5021549;28;20033;-74
2022/04/09 12:38:16;;;;;;;2.10;1.90;;;18.50;65.80;;;;;;5031708;28;20021;-74
2022/04/09 12:40:42;;;;;;;2.90;1.98;;;18.50;66.80;;;;;;5031857;28;20044;-74
2022/04/09 12:43:31;;;;;;;4.20;2.05;;;18.50;65.80;;;;;;5031785;28;20057;-74